Time;durP1;ratioP1;P1;durP2;ratioP2;P2;SDS_P1;SDS_P2;PMS_P1;PMS_P2;Temp;Humidity;BMP_temperature;BMP_pressure;BME280_temperature;BME280_humidity;BME280_pressure;Samples;Min_cycle;Max_cycle;Signal;HPM_P1;HPM_P2
2021/12/24 00:00:13;;;;;;;89.68;36.78;;;0.80;99.40;;;;;;5039406;28;20473;-78
2021/12/24 00:02:39;;;;;;;69.03;29.02;;;0.90;99.50;;;;;;5038924;28;20029;-78
2021/12/24 00:05:06;;;;;;;85.88;34.53;;;0.90;99.60;;;;;;5038846;28;20029;-78
2021/12/24 00:07:32;;;;;;;196.25;58.50;;;0.90;99.30;;;;;;5039042;28;20024;-78
2021/12/24 00:09:58;;;;;;;52.15;24.42;;;0.80;99.40;;;;;;5038811;28;20704;-78
2021/12/24 00:12:27;;;;;;;53.60;23.65;;;0.80;99.30;;;;;;5039153;28;20472;-77
2021/12/24 00:14:57;;;;;;;56.00;23.80;;;0.80;99.30;;;;;;5039606;28;20013;-77
2021/12/24 00:17:29;;;;;;;72.88;28.50;;;0.90;99.00;;;;;;5039088;28;20021;-76
2021/12/24 00:20:09;;;;;;;96.53;31.88;;;0.90;99.30;;;;;;5038682;28;20049;-78
2021/12/24 00:36:06;;;;;;;88.82;33.03;;;3.00;99.70;;;;;;5038612;28;20319;-77
2021/12/24 00:38:32;;;;;;;60.70;27.23;;;0.90;99.20;;;;;;5038189;28;20028;-78
2021/12/24 00:40:57;;;;;;;283.30;83.90;;;0.90;99.00;;;;;;5038559;28;20029;-78
2021/12/24 00:43:24;;;;;;;79.10;29.95;;;0.90;99.30;;;;;;5039091;28;20749;-78
2021/12/24 00:45:50;;;;;;;126.40;43.00;;;0.90;99.20;;;;;;5037144;28;20021;-78
2021/12/24 00:48:18;;;;;;;185.57;59.95;;;0.90;99.40;;;;;;5038753;28;20074;-78
2021/12/24 00:56:08;;;;;;;229.85;84.18;;;0.80;99.20;;;;;;5038047;28;20376;-78
2021/12/24 00:58:34;;;;;;;182.23;70.05;;;0.90;99.40;;;;;;5038075;28;20039;-78
2021/12/24 01:01:00;;;;;;;115.15;47.08;;;0.90;99.30;;;;;;5038168;28;20029;-78
2021/12/24 01:03:27;;;;;;;83.32;37.45;;;1.00;99.40;;;;;;5037750;28;20240;-78
2021/12/24 01:05:53;;;;;;;62.85;30.10;;;0.90;99.10;;;;;;5036366;28;20508;-78
2021/12/24 01:08:20;;;;;;;25.95;14.15;;;1.00;99.30;;;;;;5037761;28;20300;-78
2021/12/24 01:10:53;;;;;;;31.42;14.98;;;1.00;99.20;;;;;;5037738;28;20310;-79
2021/12/24 01:13:19;;;;;;;26.70;14.13;;;1.00;99.30;;;;;;5038148;28;20502;-78
2021/12/24 01:16:00;;;;;;;54.78;24.65;;;1.00;99.20;;;;;;5038391;28;20033;-77
2021/12/24 01:18:41;;;;;;;32.00;17.35;;;1.00;99.10;;;;;;5037678;28;20025;-78
2021/12/24 01:24:05;;;;;;;53.92;25.42;;;1.00;99.30;;;;;;5042159;28;20354;-77
2021/12/24 01:29:30;;;;;;;34.53;16.92;;;1.10;99.30;;;;;;5043001;28;20479;-78
2021/12/24 01:42:48;;;;;;;28.83;14.55;;;1.30;98.80;;;;;;5020653;28;20021;-77
2021/12/24 01:45:23;;;;;;;34.75;16.80;;;1.20;98.50;;;;;;5020973;28;20085;-77
2021/12/24 01:47:52;;;;;;;34.35;17.17;;;1.20;98.60;;;;;;5021267;28;20133;-77
2021/12/24 01:50:20;;;;;;;39.78;21.40;;;1.20;98.40;;;;;;5004817;28;20172;-77
2021/12/24 01:52:48;;;;;;;41.88;21.58;;;1.10;98.70;;;;;;5020988;28;20180;-77
2021/12/24 01:55:14;;;;;;;45.17;24.33;;;1.10;98.80;;;;;;5027196;28;20077;-78
2021/12/24 01:57:42;;;;;;;34.78;18.02;;;1.00;98.90;;;;;;5028116;28;20505;-77
2021/12/24 02:00:11;;;;;;;34.30;17.20;;;1.00;99.10;;;;;;5027618;28;20034;-77
2021/12/24 02:02:37;;;;;;;29.77;15.27;;;1.10;99.20;;;;;;5022185;28;20064;-77
2021/12/24 02:05:03;;;;;;;41.50;18.80;;;1.00;98.90;;;;;;5043126;28;20212;-77
2021/12/24 02:07:29;;;;;;;47.72;22.73;;;1.00;98.90;;;;;;5041086;28;20463;-78
2021/12/24 02:09:55;;;;;;;39.50;20.25;;;1.00;99.20;;;;;;5042383;28;20098;-78
2021/12/24 02:12:24;;;;;;;41.25;20.42;;;1.00;99.10;;;;;;5042559;28;20025;-78
2021/12/24 02:14:53;;;;;;;38.58;20.83;;;1.00;99.20;;;;;;5042030;28;20021;-76
2021/12/24 02:17:49;;;;;;;40.47;19.15;;;0.90;99.30;;;;;;5042085;28;20108;-78
2021/12/24 02:28:38;;;;;;;39.22;19.65;;;0.90;99.30;;;;;;5049702;28;20051;-78
2021/12/24 02:31:07;;;;;;;50.80;24.73;;;0.40;99.00;;;;;;5048629;28;20017;-79
2021/12/24 02:33:33;;;;;;;47.10;24.63;;;0.90;99.20;;;;;;5044545;28;20013;-78
2021/12/24 02:35:59;;;;;;;37.58;19.10;;;0.80;99.50;;;;;;5040077;28;20029;-78
2021/12/24 02:38:25;;;;;;;30.58;15.68;;;0.80;99.60;;;;;;5040802;28;20031;-77
2021/12/24 02:40:51;;;;;;;28.95;14.25;;;0.60;99.30;;;;;;5041178;28;20029;-77
2021/12/24 02:43:20;;;;;;;27.13;14.77;;;0.80;99.50;;;;;;5040522;28;20460;-78
2021/12/24 02:45:48;;;;;;;31.83;15.65;;;0.80;99.50;;;;;;5040444;28;20340;-78
2021/12/24 02:48:57;;;;;;;29.17;13.90;;;1.00;99.60;;;;;;5040221;28;20514;-76
2021/12/24 02:53:57;;;;;;;34.55;16.95;;;1.20;99.60;;;;;;5040039;28;20032;-79
2021/12/24 02:56:32;;;;;;;31.58;16.45;;;0.70;99.60;;;;;;5038992;28;20395;-77
2021/12/24 02:59:00;;;;;;;32.70;14.88;;;0.70;99.80;;;;;;5040489;28;20082;-78
2021/12/24 03:01:30;;;;;;;28.70;15.45;;;0.70;99.90;;;;;;5040259;28;20473;-78
2021/12/24 03:03:56;;;;;;;32.05;14.85;;;0.70;99.90;;;;;;5038843;28;20095;-78
2021/12/24 03:06:25;;;;;;;30.55;14.77;;;0.70;99.70;;;;;;5038504;28;20606;-77
2021/12/24 03:08:53;;;;;;;34.15;16.48;;;0.70;99.90;;;;;;5039614;28;20468;-78
2021/12/24 03:11:19;;;;;;;35.53;17.60;;;0.80;99.90;;;;;;5040147;28;20702;-78
2021/12/24 03:13:45;;;;;;;32.08;16.45;;;0.70;99.90;;;;;;5038629;28;20056;-77
2021/12/24 03:16:11;;;;;;;36.80;18.77;;;0.70;99.90;;;;;;5040607;28;20326;-78
2021/12/24 03:18:39;;;;;;;38.33;18.20;;;0.80;99.90;;;;;;5040034;28;20215;-77
2021/12/24 03:21:31;;;;;;;30.40;16.30;;;0.70;99.90;;;;;;5039675;28;20386;-77
2021/12/24 03:26:33;;;;;;;28.95;15.52;;;0.70;99.90;;;;;;5039617;28;20027;-77
2021/12/24 03:28:59;;;;;;;30.52;15.05;;;0.80;99.90;;;;;;5038401;28;20025;-77
2021/12/24 03:31:25;;;;;;;34.38;15.65;;;0.80;99.90;;;;;;5040213;28;20052;-78
2021/12/24 03:33:53;;;;;;;36.10;17.77;;;0.80;99.90;;;;;;5039916;28;20032;-77
2021/12/24 03:36:21;;;;;;;38.55;17.27;;;0.80;99.90;;;;;;5040260;28;20025;-78
2021/12/24 03:38:47;;;;;;;41.17;18.17;;;0.80;99.90;;;;;;5039554;28;20321;-77
2021/12/24 03:41:13;;;;;;;32.85;16.60;;;0.90;99.80;;;;;;5040497;28;20229;-78
2021/12/24 03:43:39;;;;;;;33.28;16.90;;;0.90;99.90;;;;;;5039754;28;20250;-78
2021/12/24 03:46:09;;;;;;;37.13;17.77;;;0.90;99.90;;;;;;5038772;28;20037;-76
2021/12/24 03:56:35;;;;;;;30.08;13.98;;;1.00;99.90;;;;;;5045165;28;20039;-78
2021/12/24 03:59:01;;;;;;;26.92;14.30;;;1.00;99.90;;;;;;5046866;28;20056;-78
2021/12/24 04:01:27;;;;;;;27.75;13.13;;;1.00;99.90;;;;;;5046998;28;20032;-78
2021/12/24 04:03:53;;;;;;;25.05;12.05;;;1.00;99.90;;;;;;5043478;28;20029;-78
2021/12/24 04:06:19;;;;;;;26.48;12.50;;;1.00;99.60;;;;;;5039981;28;20082;-78
2021/12/24 04:08:44;;;;;;;27.90;14.27;;;1.00;99.70;;;;;;5038147;28;20041;-76
2021/12/24 04:11:10;;;;;;;28.48;14.80;;;1.00;99.90;;;;;;5040966;28;20260;-78
2021/12/24 04:13:36;;;;;;;32.97;15.73;;;1.00;99.90;;;;;;5040029;28;20021;-77
2021/12/24 04:16:03;;;;;;;32.05;17.23;;;1.00;99.90;;;;;;5039005;28;20436;-78
2021/12/24 04:26:26;;;;;;;31.98;16.38;;;1.00;99.90;;;;;;5039706;28;20067;-78
2021/12/24 04:28:51;;;;;;;27.75;14.50;;;0.90;99.90;;;;;;5039997;28;20044;-77
2021/12/24 04:31:21;;;;;;;32.13;17.13;;;-0.90;99.80;;;;;;5038941;28;20377;-78
2021/12/24 04:33:49;;;;;;;37.00;18.67;;;1.00;99.90;;;;;;5037380;28;20301;-78
2021/12/24 05:03:32;;;;;;;43.15;21.27;;;0.70;99.90;;;;;;5038527;28;20542;-76
2021/12/24 05:08:55;;;;;;;55.80;28.23;;;0.70;99.90;;;;;;5014908;28;20384;-77
2021/12/24 05:11:22;;;;;;;60.50;28.95;;;0.70;99.90;;;;;;5014902;28;20459;-78
2021/12/24 05:13:50;;;;;;;56.08;28.48;;;2.40;99.90;;;;;;5015051;28;20030;-77
2021/12/24 05:21:46;;;;;;;43.58;20.75;;;0.80;99.90;;;;;;4975991;28;20649;-77
2021/12/24 05:24:18;;;;;;;42.83;21.38;;;0.80;99.90;;;;;;4959558;28;20399;-77
2021/12/24 05:26:46;;;;;;;39.38;19.17;;;0.80;99.90;;;;;;4975915;28;20450;-77
2021/12/24 05:29:15;;;;;;;39.30;20.52;;;0.80;99.90;;;;;;4959768;28;20279;-77
2021/12/24 05:31:44;;;;;;;46.17;22.40;;;0.80;99.90;;;;;;4960108;28;20251;-78
2021/12/24 05:34:14;;;;;;;71.18;31.75;;;0.80;99.90;;;;;;4976185;28;20037;-78
2021/12/24 05:36:39;;;;;;;92.03;38.45;;;0.80;99.90;;;;;;4959955;28;20340;-78
2021/12/24 05:39:05;;;;;;;80.32;33.60;;;0.80;99.90;;;;;;4959278;28;20054;-77
2021/12/24 05:41:31;;;;;;;63.85;31.27;;;0.80;99.90;;;;;;4980273;28;20102;-77
2021/12/24 05:43:58;;;;;;;55.70;27.45;;;0.80;99.90;;;;;;4979226;28;20098;-78
2021/12/24 05:46:25;;;;;;;53.58;27.15;;;0.70;99.90;;;;;;4990258;28;20037;-78
2021/12/24 05:48:52;;;;;;;59.28;29.52;;;0.80;99.90;;;;;;4999865;28;20160;-81
2021/12/24 05:51:26;;;;;;;67.25;32.08;;;0.70;99.90;;;;;;5015815;28;20037;-78
2021/12/24 05:53:52;;;;;;;59.88;29.80;;;0.70;99.90;;;;;;4997472;28;20048;-78
2021/12/24 05:56:18;;;;;;;57.75;28.50;;;0.80;99.90;;;;;;5030611;28;20675;-78
2021/12/24 05:58:44;;;;;;;46.60;23.48;;;0.80;99.90;;;;;;5036253;28;20041;-78
2021/12/24 06:01:10;;;;;;;55.38;26.60;;;0.80;99.90;;;;;;5037532;28;20063;-78
2021/12/24 06:03:36;;;;;;;94.65;41.78;;;0.70;99.90;;;;;;5037256;28;20021;-79
2021/12/24 06:06:02;;;;;;;110.88;49.08;;;0.50;99.90;;;;;;5037608;28;20344;-79
2021/12/24 06:08:30;;;;;;;109.95;49.95;;;0.70;99.90;;;;;;5037348;28;20458;-79
2021/12/24 06:10:58;;;;;;;104.43;46.58;;;0.70;99.90;;;;;;5041104;28;20024;-78
2021/12/24 06:13:25;;;;;;;94.25;42.28;;;0.70;99.90;;;;;;5041352;28;20392;-79
2021/12/24 06:15:52;;;;;;;87.25;41.08;;;0.70;99.90;;;;;;5040984;28;20025;-78
2021/12/24 06:18:24;;;;;;;90.85;41.60;;;0.60;99.90;;;;;;5040783;28;20023;-79
2021/12/24 06:20:52;;;;;;;126.97;53.60;;;0.60;99.90;;;;;;5041239;28;20032;-79
2021/12/24 06:23:22;;;;;;;120.95;52.55;;;0.60;99.90;;;;;;5041076;28;20198;-79
2021/12/24 06:25:49;;;;;;;101.82;45.70;;;0.60;99.90;;;;;;5041245;28;20033;-78
2021/12/24 06:28:15;;;;;;;90.97;42.47;;;0.60;99.90;;;;;;5039540;28;20335;-78
2021/12/24 06:30:41;;;;;;;85.65;41.95;;;0.60;99.90;;;;;;5041573;28;20507;-78
2021/12/24 06:33:09;;;;;;;92.38;42.10;;;0.60;99.90;;;;;;5039845;28;20112;-77
2021/12/24 06:35:35;;;;;;;81.82;39.20;;;0.60;99.90;;;;;;5041657;28;20213;-78
2021/12/24 06:38:04;;;;;;;83.72;39.20;;;0.70;99.90;;;;;;5041336;28;20062;-77
2021/12/24 06:40:31;;;;;;;82.65;39.55;;;0.70;99.90;;;;;;5039301;28;20048;-77
2021/12/24 06:42:56;;;;;;;88.05;39.45;;;-0.90;99.90;;;;;;5040647;28;20025;-77
2021/12/24 06:45:24;;;;;;;81.90;38.90;;;0.80;99.90;;;;;;5041071;28;20023;-78
2021/12/24 06:47:55;;;;;;;80.00;36.78;;;0.80;99.90;;;;;;5040905;28;20067;-78
2021/12/24 06:50:21;;;;;;;75.10;37.13;;;0.90;99.90;;;;;;5040789;28;20025;-77
2021/12/24 06:52:47;;;;;;;77.72;37.75;;;0.80;99.90;;;;;;5041154;28;20178;-77
2021/12/24 06:55:17;;;;;;;80.53;38.50;;;0.90;99.90;;;;;;5039184;28;20071;-78
2021/12/24 06:57:44;;;;;;;76.07;37.67;;;0.90;99.90;;;;;;5040878;28;20032;-78
2021/12/24 07:00:15;;;;;;;73.55;37.28;;;0.90;99.90;;;;;;5040763;28;20029;-78
2021/12/24 07:02:41;;;;;;;80.22;38.83;;;1.00;99.90;;;;;;5040813;28;20032;-77
2021/12/24 07:05:07;;;;;;;83.70;39.75;;;1.00;99.90;;;;;;5040749;28;20013;-78
2021/12/24 07:07:33;;;;;;;75.53;38.30;;;1.10;99.90;;;;;;5040659;28;20515;-77
2021/12/24 07:10:02;;;;;;;101.15;45.92;;;1.10;99.90;;;;;;5040353;28;20293;-78
2021/12/24 07:12:27;;;;;;;105.72;48.88;;;1.10;99.90;;;;;;5041012;28;20631;-77
2021/12/24 07:14:53;;;;;;;94.05;44.60;;;1.10;99.90;;;;;;5041162;28;20025;-78
2021/12/24 07:17:19;;;;;;;114.35;51.13;;;1.10;99.90;;;;;;5041634;28;20549;-78
2021/12/24 07:19:45;;;;;;;112.25;50.58;;;1.70;99.90;;;;;;5041035;28;20313;-77
2021/12/24 07:22:16;;;;;;;104.63;49.40;;;1.20;99.90;;;;;;5041177;28;20285;-77
2021/12/24 07:24:42;;;;;;;99.18;47.33;;;3.90;99.90;;;;;;5041547;28;20017;-78
2021/12/24 07:27:08;;;;;;;112.65;48.97;;;1.20;99.90;;;;;;5042199;28;20221;-78
2021/12/24 07:29:36;;;;;;;101.80;45.63;;;1.20;99.90;;;;;;5048151;28;20017;-77
2021/12/24 07:32:03;;;;;;;183.23;79.15;;;1.30;99.90;;;;;;5047414;28;20021;-78
2021/12/24 07:34:29;;;;;;;98.47;44.45;;;1.30;99.90;;;;;;5046957;28;20021;-78
2021/12/24 07:36:55;;;;;;;51.63;24.83;;;1.30;99.90;;;;;;5045020;28;20410;-78
2021/12/24 07:39:21;;;;;;;49.58;25.33;;;1.30;99.90;;;;;;5038896;28;20040;-78
2021/12/24 07:41:48;;;;;;;59.78;27.00;;;1.40;99.90;;;;;;5040325;28;20052;-78
2021/12/24 07:44:13;;;;;;;79.03;33.60;;;1.50;99.90;;;;;;5040319;28;20045;-78
2021/12/24 07:46:48;;;;;;;77.05;36.15;;;1.60;99.90;;;;;;5039996;28;20049;-78
2021/12/24 07:52:01;;;;;;;59.90;28.58;;;1.90;99.90;;;;;;5040327;28;20029;-77
2021/12/24 07:54:28;;;;;;;60.05;35.00;;;2.00;99.90;;;;;;5040122;28;20072;-77
2021/12/24 07:56:56;;;;;;;51.25;27.48;;;2.10;99.70;;;;;;5039956;28;20017;-78
2021/12/24 07:59:26;;;;;;;38.80;20.38;;;2.30;99.40;;;;;;5038851;28;20079;-78
2021/12/24 08:01:54;;;;;;;42.30;23.63;;;2.40;99.40;;;;;;5039468;28;20276;-78
2021/12/24 08:04:19;;;;;;;47.47;24.83;;;2.50;99.20;;;;;;5039746;28;20027;-78
2021/12/24 08:06:47;;;;;;;62.28;30.63;;;2.70;98.90;;;;;;5040266;28;20037;-77
2021/12/24 08:09:13;;;;;;;53.67;26.90;;;2.80;98.90;;;;;;5041415;28;20083;-78
2021/12/24 08:11:38;;;;;;;40.10;20.20;;;2.90;98.30;;;;;;5040935;28;20025;-77
2021/12/24 08:14:06;;;;;;;32.38;18.45;;;3.00;98.30;;;;;;5041562;28;20255;-77
2021/12/24 08:16:36;;;;;;;66.53;28.25;;;3.10;98.30;;;;;;5041367;28;20024;-78
2021/12/24 08:19:03;;;;;;;52.90;25.85;;;3.30;98.10;;;;;;5040338;28;20098;-77
2021/12/24 08:22:02;;;;;;;36.63;19.05;;;3.30;97.60;;;;;;5040347;28;20411;-78
2021/12/24 08:24:30;;;;;;;30.77;17.85;;;3.60;97.80;;;;;;5042583;28;20332;-78
2021/12/24 08:26:56;;;;;;;27.35;16.52;;;3.70;97.20;;;;;;5042577;28;20055;-77
2021/12/24 08:29:22;;;;;;;26.55;15.35;;;3.00;96.70;;;;;;5040684;28;20025;-77
2021/12/24 08:31:52;;;;;;;25.13;14.57;;;4.00;96.60;;;;;;5039464;28;20029;-77
2021/12/24 08:34:19;;;;;;;31.52;15.63;;;4.10;96.20;;;;;;5043444;28;20161;-78
2021/12/24 08:36:47;;;;;;;28.95;15.98;;;4.30;96.00;;;;;;5043078;28;20475;-78
2021/12/24 08:39:17;;;;;;;42.20;20.42;;;4.40;95.90;;;;;;5041215;28;20029;-77
2021/12/24 08:41:44;;;;;;;38.38;20.42;;;4.60;95.90;;;;;;5040554;28;20249;-78
2021/12/24 08:44:09;;;;;;;33.67;16.52;;;4.70;95.20;;;;;;5044421;28;20063;-77
2021/12/24 08:46:36;;;;;;;29.23;15.27;;;4.80;94.90;;;;;;5043804;28;20029;-78
2021/12/24 08:49:03;;;;;;;29.23;15.25;;;5.00;94.70;;;;;;5043043;28;20028;-77
2021/12/24 08:51:48;;;;;;;132.20;55.63;;;5.10;94.30;;;;;;5049558;28;20044;-78
2021/12/24 08:54:14;;;;;;;134.27;53.53;;;7.00;94.50;;;;;;5049526;28;20047;-79
2021/12/24 08:56:40;;;;;;;57.97;28.20;;;5.40;94.10;;;;;;5047729;28;20108;-78
2021/12/24 08:59:06;;;;;;;39.10;23.40;;;5.50;93.60;;;;;;5040765;28;20036;-78
2021/12/24 09:01:32;;;;;;;35.50;20.40;;;7.80;93.90;;;;;;5045056;28;20021;-78
2021/12/24 09:03:58;;;;;;;34.63;18.85;;;5.80;92.90;;;;;;5050571;28;20094;-78
2021/12/24 09:06:25;;;;;;;37.40;20.48;;;5.90;93.00;;;;;;5045651;28;20021;-78
2021/12/24 09:08:51;;;;;;;41.55;22.65;;;6.10;92.60;;;;;;5041484;28;20029;-79
2021/12/24 09:11:17;;;;;;;53.25;26.75;;;6.20;92.70;;;;;;5041376;28;20107;-78
2021/12/24 09:13:45;;;;;;;48.80;25.08;;;6.40;92.00;;;;;;5041629;28;20092;-79
2021/12/24 09:16:14;;;;;;;43.33;23.55;;;6.60;91.90;;;;;;5042507;28;20694;-78
2021/12/24 09:18:41;;;;;;;38.13;20.40;;;6.70;91.50;;;;;;5040645;28;20078;-79
2021/12/24 09:21:15;;;;;;;36.80;20.27;;;6.80;91.20;;;;;;5042922;28;20044;-78
2021/12/24 09:23:43;;;;;;;46.10;22.25;;;7.00;91.10;;;;;;5040441;28;20136;-77
2021/12/24 09:26:09;;;;;;;46.63;25.17;;;7.20;90.70;;;;;;5042681;28;20078;-79
2021/12/24 09:28:34;;;;;;;45.45;22.55;;;7.40;90.30;;;;;;5043706;28;20128;-79
2021/12/24 09:31:02;;;;;;;35.15;19.05;;;7.60;89.90;;;;;;5046260;28;20025;-79
2021/12/24 09:33:27;;;;;;;35.13;18.50;;;7.70;88.60;;;;;;5045641;28;20075;-78
2021/12/24 09:35:54;;;;;;;33.47;17.70;;;7.90;88.30;;;;;;5045249;28;20040;-78
2021/12/24 09:38:20;;;;;;;37.05;19.65;;;8.00;88.10;;;;;;5045301;28;20021;-78
2021/12/24 09:40:46;;;;;;;505.65;197.07;;;8.20;87.00;;;;;;5046218;28;20059;-78
2021/12/24 09:43:13;;;;;;;186.15;68.95;;;8.30;86.00;;;;;;5050715;28;20080;-79
2021/12/24 09:45:39;;;;;;;100.60;41.38;;;8.40;85.70;;;;;;5055079;28;20021;-80
2021/12/24 09:48:04;;;;;;;45.83;25.52;;;8.50;86.10;;;;;;5055240;28;20728;-79
2021/12/24 09:50:30;;;;;;;80.47;38.28;;;8.60;85.20;;;;;;5046881;28;20032;-78
2021/12/24 09:52:57;;;;;;;230.98;89.72;;;8.70;84.60;;;;;;5045205;28;20021;-79
2021/12/24 09:55:25;;;;;;;294.58;117.45;;;8.80;84.10;;;;;;5045256;28;20045;-79
2021/12/24 09:57:51;;;;;;;177.18;69.05;;;8.80;85.10;;;;;;5049461;28;20116;-78
2021/12/24 10:00:25;;;;;;;84.45;35.35;;;8.90;85.20;;;;;;5051648;28;20159;-79
2021/12/24 10:02:57;;;;;;;59.40;28.27;;;9.00;84.30;;;;;;5035066;28;20083;-79
2021/12/24 10:05:35;;;;;;;70.30;34.65;;;9.50;84.80;;;;;;5046360;28;20031;-78
2021/12/24 10:08:14;;;;;;;55.00;27.73;;;9.10;82.80;;;;;;5045552;28;20017;-79
2021/12/24 10:10:43;;;;;;;28.60;15.27;;;9.30;83.20;;;;;;5045809;28;20055;-78
2021/12/24 10:13:34;;;;;;;18.65;10.52;;;9.70;81.70;;;;;;5044536;28;20021;-79
2021/12/24 10:16:09;;;;;;;15.05;7.53;;;10.00;80.90;;;;;;5056542;28;20546;-78
2021/12/24 10:18:41;;;;;;;12.90;7.00;;;10.30;79.30;;;;;;5062065;28;20025;-78
2021/12/24 10:21:22;;;;;;;19.05;9.43;;;10.60;77.50;;;;;;5051428;28;20102;-79
2021/12/24 10:23:55;;;;;;;24.05;13.25;;;12.80;77.40;;;;;;5051097;28;20025;-78
2021/12/24 10:26:30;;;;;;;31.52;16.08;;;10.90;74.20;;;;;;5047146;28;20048;-77
2021/12/24 10:28:58;;;;;;;24.33;13.18;;;11.40;72.20;;;;;;5046668;28;20054;-79
2021/12/24 10:31:39;;;;;;;11.88;7.05;;;11.60;72.30;;;;;;5049015;28;20171;-77
2021/12/24 10:34:15;;;;;;;5.65;3.15;;;11.70;70.80;;;;;;5042624;28;20052;-78
2021/12/24 10:36:54;;;;;;;5.80;3.35;;;11.80;69.10;;;;;;5041153;28;20732;-78
2021/12/24 10:39:31;;;;;;;14.27;7.40;;;11.80;69.20;;;;;;5040462;28;20087;-78
2021/12/24 10:42:02;;;;;;;15.20;8.30;;;11.80;68.20;;;;;;5041351;28;20555;-78
2021/12/24 10:44:31;;;;;;;12.18;6.15;;;11.80;68.40;;;;;;5041059;28;20079;-78
2021/12/24 10:47:00;;;;;;;7.82;3.55;;;11.80;69.00;;;;;;5041285;28;20082;-78
2021/12/24 10:52:15;;;;;;;8.25;4.22;;;11.80;69.00;;;;;;5040566;28;20021;-79
2021/12/24 10:54:52;;;;;;;8.20;4.03;;;11.90;68.30;;;;;;5038283;28;20067;-78
2021/12/24 10:57:24;;;;;;;6.68;3.55;;;11.70;68.60;;;;;;5040223;28;20013;-78
2021/12/24 10:59:54;;;;;;;7.63;3.13;;;11.60;69.50;;;;;;5040022;28;20040;-79
2021/12/24 11:02:23;;;;;;;13.18;6.40;;;11.90;68.80;;;;;;5039756;28;20024;-79
2021/12/24 11:04:50;;;;;;;4.65;2.50;;;12.10;68.80;;;;;;5040528;28;20025;-79
2021/12/24 11:07:39;;;;;;;3.78;2.10;;;12.30;66.00;;;;;;5040299;28;20032;-79
2021/12/24 11:10:19;;;;;;;8.90;3.90;;;12.40;65.90;;;;;;5040658;28;20047;-78
2021/12/24 11:12:54;;;;;;;20.17;9.77;;;12.60;65.50;;;;;;5039939;28;20040;-78
2021/12/24 11:15:24;;;;;;;14.30;7.22;;;12.60;64.90;;;;;;5039940;28;20036;-79
2021/12/24 11:17:52;;;;;;;20.77;10.88;;;12.80;63.70;;;;;;5039582;28;20021;-78
2021/12/24 11:20:19;;;;;;;8.65;4.28;;;12.90;64.10;;;;;;5039801;28;20033;-78
2021/12/24 11:23:04;;;;;;;32.25;15.02;;;13.00;62.50;;;;;;5039642;28;20029;-79
2021/12/24 11:25:46;;;;;;;15.52;7.63;;;13.00;62.50;;;;;;5039419;28;20024;-79
2021/12/24 11:28:14;;;;;;;8.60;4.53;;;11.80;61.60;;;;;;5039424;28;20446;-78
2021/12/24 11:30:49;;;;;;;15.85;8.18;;;13.30;61.60;;;;;;5038879;28;20021;-79
2021/12/24 11:33:17;;;;;;;8.98;5.45;;;13.30;61.90;;;;;;5038741;28;20037;-79
2021/12/24 11:35:45;;;;;;;6.03;3.53;;;13.30;61.60;;;;;;5039330;28;20032;-79
2021/12/24 11:38:36;;;;;;;8.98;4.55;;;13.40;61.70;;;;;;5038367;28;20049;-78
2021/12/24 11:41:03;;;;;;;4.28;2.90;;;13.50;60.20;;;;;;5037287;28;20540;-79
2021/12/24 11:43:32;;;;;;;6.93;3.67;;;13.60;59.30;;;;;;5038160;28;20031;-79
2021/12/24 11:46:00;;;;;;;27.38;12.77;;;13.70;60.40;;;;;;5038512;28;20286;-78
2021/12/24 11:48:28;;;;;;;12.10;7.57;;;13.70;59.10;;;;;;5038076;28;20198;-79
2021/12/24 11:50:55;;;;;;;9.40;4.50;;;13.80;59.10;;;;;;5037960;28;20721;-78
2021/12/24 11:53:21;;;;;;;6.75;4.43;;;13.90;59.30;;;;;;5038167;28;20018;-78
2021/12/24 11:55:50;;;;;;;7.82;4.70;;;14.20;60.40;;;;;;5037681;28;20052;-79
2021/12/24 11:58:43;;;;;;;6.25;3.97;;;14.30;57.40;;;;;;5036890;28;20032;-79
2021/12/24 12:01:27;;;;;;;7.63;4.38;;;14.40;56.30;;;;;;5036274;28;20037;-77
2021/12/24 12:04:22;;;;;;;5.65;3.78;;;14.40;55.80;;;;;;5038735;28;20045;-79
2021/12/24 12:06:50;;;;;;;15.57;9.27;;;14.60;55.90;;;;;;5035907;28;20111;-80
2021/12/24 12:09:41;;;;;;;14.65;7.85;;;14.40;59.00;;;;;;5037208;28;20032;-80
2021/12/24 12:12:09;;;;;;;9.45;4.53;;;14.80;57.10;;;;;;5037507;28;20666;-79
2021/12/24 12:15:19;;;;;;;14.25;6.60;;;14.30;56.80;;;;;;5037024;28;20025;-80
2021/12/24 12:18:26;;;;;;;6.85;4.20;;;14.10;58.10;;;;;;4994953;28;20050;-80
2021/12/24 12:20:57;;;;;;;10.57;5.28;;;12.90;57.30;;;;;;4978159;28;20038;-80
2021/12/24 12:23:49;;;;;;;13.88;8.02;;;14.10;58.10;;;;;;4994613;28;20033;-80
2021/12/24 12:26:41;;;;;;;12.05;7.28;;;14.10;57.30;;;;;;4994649;28;20607;-80
2021/12/24 12:29:16;;;;;;;7.97;4.53;;;14.10;57.90;;;;;;4994808;28;20026;-80
2021/12/24 12:31:42;;;;;;;19.52;9.45;;;14.10;57.00;;;;;;4994464;28;20614;-80
2021/12/24 12:34:46;;;;;;;7.57;4.10;;;14.20;57.40;;;;;;4994310;28;20190;-80
2021/12/24 12:37:22;;;;;;;12.27;6.68;;;14.20;56.70;;;;;;4993897;28;20359;-80
2021/12/24 12:40:13;;;;;;;12.18;5.50;;;14.20;57.60;;;;;;4994355;28;20045;-80
2021/12/24 12:42:55;;;;;;;5.80;3.20;;;14.30;56.90;;;;;;4916677;29;20040;-80
2021/12/24 12:45:43;;;;;;;9.63;5.28;;;14.30;56.90;;;;;;4917322;29;20044;-79
2021/12/24 12:48:16;;;;;;;4.15;2.80;;;14.20;56.80;;;;;;4910475;29;20570;-79
2021/12/24 12:50:52;;;;;;;9.00;4.40;;;14.10;57.50;;;;;;4901225;29;20042;-80
2021/12/24 12:53:36;;;;;;;6.15;4.03;;;13.90;58.30;;;;;;4917412;29;20068;-80
2021/12/24 12:56:21;;;;;;;11.35;5.65;;;14.00;58.50;;;;;;4955313;28;20299;-80
2021/12/24 12:58:49;;;;;;;8.93;5.00;;;13.60;58.40;;;;;;4954999;28;20046;-80
2021/12/24 13:01:21;;;;;;;15.10;8.10;;;13.90;58.50;;;;;;4955305;28;20635;-78
2021/12/24 13:04:00;;;;;;;5.57;3.65;;;13.90;59.10;;;;;;4955653;28;20034;-78
2021/12/24 13:06:41;;;;;;;2.45;1.80;;;13.70;58.90;;;;;;4955238;28;20588;-80
2021/12/24 13:09:13;;;;;;;4.00;2.25;;;13.60;59.70;;;;;;4939237;28;20030;-77
2021/12/24 13:11:44;;;;;;;2.38;1.70;;;13.50;60.20;;;;;;4955855;28;20030;-81
2021/12/24 13:14:11;;;;;;;3.80;2.50;;;13.30;61.20;;;;;;4956035;28;20035;-79
2021/12/24 13:16:49;;;;;;;3.20;1.88;;;13.20;61.70;;;;;;4956409;28;20043;-78
2021/12/24 13:22:31;;;;;;;4.28;2.85;;;13.00;63.10;;;;;;5041458;28;20036;-78
2021/12/24 13:25:05;;;;;;;3.20;1.83;;;12.80;63.80;;;;;;4999057;28;20014;-77
2021/12/24 13:27:52;;;;;;;3.75;1.60;;;12.80;64.10;;;;;;4998841;28;20050;-81
2021/12/24 13:30:20;;;;;;;4.18;1.60;;;12.80;64.50;;;;;;4998711;28;20091;-80
2021/12/24 13:32:58;;;;;;;3.65;2.20;;;12.70;64.70;;;;;;4998292;28;20030;-77
2021/12/24 13:35:38;;;;;;;2.20;1.40;;;12.60;65.50;;;;;;4998180;28;20026;-77
2021/12/24 13:38:10;;;;;;;3.97;2.40;;;12.50;65.80;;;;;;4998735;28;20654;-78
2021/12/24 13:40:59;;;;;;;7.30;3.00;;;12.40;66.90;;;;;;4998618;28;20613;-80
2021/12/24 13:46:59;;;;;;;2.90;1.80;;;12.60;67.40;;;;;;4959240;28;20142;-80
2021/12/24 13:55:37;;;;;;;1.95;1.42;;;12.00;69.40;;;;;;4867205;29;20056;-80
2021/12/24 13:58:21;;;;;;;6.40;3.30;;;11.80;69.90;;;;;;4864613;29;20069;-79
2021/12/24 14:00:49;;;;;;;4.07;2.08;;;11.70;70.50;;;;;;4850759;29;20060;-80
2021/12/24 14:03:15;;;;;;;5.55;2.65;;;11.70;70.80;;;;;;4853590;29;20061;-79
2021/12/24 14:05:52;;;;;;;2.70;1.70;;;11.60;71.40;;;;;;4854611;29;20025;-80
2021/12/24 14:08:25;;;;;;;2.60;1.52;;;11.50;71.60;;;;;;4853713;29;20100;-80
2021/12/24 14:11:05;;;;;;;3.08;1.70;;;13.40;72.70;;;;;;4851022;29;20044;-80
2021/12/24 14:13:35;;;;;;;2.58;1.88;;;11.40;72.70;;;;;;4854378;29;20698;-79
2021/12/24 14:24:24;;;;;;;11.20;4.32;;;10.80;74.70;;;;;;4888386;29;20096;-79
2021/12/24 14:26:52;;;;;;;8.02;4.20;;;10.90;75.60;;;;;;4941701;28;20034;-80
2021/12/24 14:29:30;;;;;;;19.75;7.53;;;10.90;75.80;;;;;;5016193;28;20025;-79
2021/12/24 14:32:22;;;;;;;15.68;6.88;;;10.90;75.40;;;;;;5052137;28;20033;-79
2021/12/24 14:34:56;;;;;;;10.65;5.55;;;10.90;75.60;;;;;;5045456;28;20053;-80
2021/12/24 14:37:25;;;;;;;8.63;4.93;;;10.90;75.60;;;;;;5044242;28;20021;-79
2021/12/24 14:39:53;;;;;;;6.80;4.65;;;10.80;76.10;;;;;;5041250;28;20055;-79
2021/12/24 14:42:26;;;;;;;3.53;2.30;;;10.70;76.80;;;;;;5042511;28;20009;-79
2021/12/24 14:45:12;;;;;;;5.28;2.72;;;10.60;76.90;;;;;;5043116;28;20021;-79
2021/12/24 14:47:41;;;;;;;3.75;2.20;;;10.60;77.40;;;;;;5042568;28;20024;-79
2021/12/24 14:50:12;;;;;;;2.67;1.98;;;10.50;78.20;;;;;;5042085;28;20067;-79
2021/12/24 14:52:43;;;;;;;1.67;1.20;;;10.40;78.10;;;;;;5042038;28;20043;-80
2021/12/24 14:55:23;;;;;;;3.40;1.80;;;10.30;78.30;;;;;;5041339;28;20124;-80
2021/12/24 14:57:52;;;;;;;5.35;2.10;;;10.20;79.00;;;;;;5042235;28;20025;-79
2021/12/24 15:00:35;;;;;;;5.47;2.53;;;10.10;79.50;;;;;;5041538;28;20052;-80
2021/12/24 15:03:11;;;;;;;3.65;1.58;;;10.00;79.90;;;;;;5042186;28;20033;-79